sensor_id;sensor_type;location;lat;lon;timestamp;pressure;altitude;pressure_sealevel;temperature;humidity
17505;BME280;8870;50.950;11.762;2023-03-04T00:01:04;98930.50;;;-0.25;100.00
17505;BME280;8870;50.950;11.762;2023-03-04T00:06:35;98931.28;;;-0.23;100.00
17505;BME280;8870;50.950;11.762;2023-03-04T00:12:09;98916.22;;;-0.23;100.00
17505;BME280;8870;50.950;11.762;2023-03-04T00:17:27;98914.31;;;-0.19;100.00
17505;BME280;8870;50.950;11.762;2023-03-04T00:22:58;98909.44;;;-0.11;100.00
17505;BME280;8870;50.950;11.762;2023-03-04T00:28:18;98905.84;;;-0.10;100.00
17505;BME280;8870;50.950;11.762;2023-03-04T00:33:50;98901.75;;;-0.16;100.00
17505;BME280;8870;50.950;11.762;2023-03-04T00:39:08;98897.38;;;-0.17;100.00
17505;BME280;8870;50.950;11.762;2023-03-04T00:44:41;98883.28;;;-0.17;100.00
17505;BME280;8870;50.950;11.762;2023-03-04T00:50:00;98880.22;;;-0.09;100.00
17505;BME280;8870;50.950;11.762;2023-03-04T00:55:32;98874.91;;;-0.09;100.00
17505;BME280;8870;50.950;11.762;2023-03-04T01:00:52;98870.25;;;-0.04;100.00
17505;BME280;8870;50.950;11.762;2023-03-04T01:06:24;98854.41;;;-0.06;100.00
17505;BME280;8870;50.950;11.762;2023-03-04T01:11:55;98850.50;;;0.02;100.00
17505;BME280;8870;50.950;11.762;2023-03-04T01:17:15;98840.94;;;0.15;100.00
17505;BME280;8870;50.950;11.762;2023-03-04T01:22:47;98831.88;;;0.19;100.00
17505;BME280;8870;50.950;11.762;2023-03-04T01:28:05;98814.09;;;0.21;100.00
17505;BME280;8870;50.950;11.762;2023-03-04T01:33:25;98817.34;;;0.26;100.00
17505;BME280;8870;50.950;11.762;2023-03-04T01:38:57;98813.84;;;0.26;100.00
17505;BME280;8870;50.950;11.762;2023-03-04T01:44:15;98792.56;;;0.27;100.00
17505;BME280;8870;50.950;11.762;2023-03-04T01:49:53;98800.69;;;0.24;100.00
17505;BME280;8870;50.950;11.762;2023-03-04T01:55:15;98779.88;;;0.33;100.00
17505;BME280;8870;50.950;11.762;2023-03-04T02:00:48;98765.69;;;0.34;100.00
17505;BME280;8870;50.950;11.762;2023-03-04T02:06:15;98761.06;;;0.37;100.00
17505;BME280;8870;50.950;11.762;2023-03-04T02:11:48;98769.78;;;0.39;100.00
17505;BME280;8870;50.950;11.762;2023-03-04T02:17:09;98766.19;;;0.40;100.00
17505;BME280;8870;50.950;11.762;2023-03-04T02:22:48;98770.84;;;0.37;100.00
17505;BME280;8870;50.950;11.762;2023-03-04T02:28:13;98755.69;;;0.39;100.00
17505;BME280;8870;50.950;11.762;2023-03-04T02:33:44;98743.38;;;0.38;100.00
17505;BME280;8870;50.950;11.762;2023-03-04T02:39:04;98743.47;;;0.36;100.00
17505;BME280;8870;50.950;11.762;2023-03-04T02:44:41;98751.34;;;0.38;100.00
17505;BME280;8870;50.950;11.762;2023-03-04T02:50:03;98746.22;;;0.35;100.00
17505;BME280;8870;50.950;11.762;2023-03-04T02:55:35;98737.16;;;0.39;100.00
17505;BME280;8870;50.950;11.762;2023-03-04T03:00:58;98743.13;;;0.42;100.00
17505;BME280;8870;50.950;11.762;2023-03-04T03:06:30;98736.94;;;0.42;100.00
17505;BME280;8870;50.950;11.762;2023-03-04T03:12:01;98728.25;;;0.40;100.00
17505;BME280;8870;50.950;11.762;2023-03-04T03:17:23;98728.16;;;0.41;100.00
17505;BME280;8870;50.950;11.762;2023-03-04T03:22:55;98720.81;;;0.47;100.00
17505;BME280;8870;50.950;11.762;2023-03-04T03:28:13;98716.06;;;0.52;100.00
17505;BME280;8870;50.950;11.762;2023-03-04T03:33:46;98695.72;;;0.52;100.00
17505;BME280;8870;50.950;11.762;2023-03-04T03:39:05;98701.69;;;0.56;100.00
17505;BME280;8870;50.950;11.762;2023-03-04T03:44:36;98696.28;;;0.57;100.00
17505;BME280;8870;50.950;11.762;2023-03-04T03:49:57;98698.00;;;0.58;100.00
17505;BME280;8870;50.950;11.762;2023-03-04T03:55:28;98693.28;;;0.64;100.00
17505;BME280;8870;50.950;11.762;2023-03-04T04:00:46;98696.78;;;0.64;100.00
17505;BME280;8870;50.950;11.762;2023-03-04T04:06:19;98695.00;;;0.65;100.00
17505;BME280;8870;50.950;11.762;2023-03-04T04:11:51;98694.78;;;0.68;100.00
17505;BME280;8870;50.950;11.762;2023-03-04T04:17:09;98700.97;;;0.68;100.00
17505;BME280;8870;50.950;11.762;2023-03-04T04:22:43;98702.06;;;0.64;100.00
17505;BME280;8870;50.950;11.762;2023-03-04T04:28:02;98711.84;;;0.64;100.00
17505;BME280;8870;50.950;11.762;2023-03-04T04:33:33;98719.97;;;0.60;100.00
17505;BME280;8870;50.950;11.762;2023-03-04T04:38:54;98724.22;;;0.63;100.00
17505;BME280;8870;50.950;11.762;2023-03-04T04:44:26;98726.88;;;0.63;100.00
17505;BME280;8870;50.950;11.762;2023-03-04T04:49:44;98724.16;;;0.65;100.00
17505;BME280;8870;50.950;11.762;2023-03-04T04:55:18;98716.94;;;0.67;100.00
17505;BME280;8870;50.950;11.762;2023-03-04T05:00:36;98723.00;;;0.69;100.00
17505;BME280;8870;50.950;11.762;2023-03-04T05:06:10;98735.34;;;0.70;100.00
17505;BME280;8870;50.950;11.762;2023-03-04T05:11:43;98736.28;;;0.69;100.00
17505;BME280;8870;50.950;11.762;2023-03-04T05:17:02;98733.63;;;0.69;100.00
17505;BME280;8870;50.950;11.762;2023-03-04T05:22:33;98722.06;;;0.70;100.00
17505;BME280;8870;50.950;11.762;2023-03-04T05:27:54;98723.00;;;0.69;100.00
17505;BME280;8870;50.950;11.762;2023-03-04T05:33:26;98728.97;;;0.72;100.00
17505;BME280;8870;50.950;11.762;2023-03-04T05:38:44;98718.38;;;0.72;100.00
17505;BME280;8870;50.950;11.762;2023-03-04T05:44:18;98714.00;;;0.71;100.00
17505;BME280;8870;50.950;11.762;2023-03-04T05:49:36;98720.38;;;0.69;100.00
17505;BME280;8870;50.950;11.762;2023-03-04T05:55:08;98721.13;;;0.71;100.00
17505;BME280;8870;50.950;11.762;2023-03-04T06:00:30;98716.66;;;0.71;100.00
17505;BME280;8870;50.950;11.762;2023-03-04T06:06:01;98712.91;;;0.75;100.00
17505;BME280;8870;50.950;11.762;2023-03-04T06:11:19;98713.75;;;0.76;100.00
17505;BME280;8870;50.950;11.762;2023-03-04T06:16:53;98715.38;;;0.79;100.00
17505;BME280;8870;50.950;11.762;2023-03-04T06:22:11;98711.69;;;0.81;100.00
17505;BME280;8870;50.950;11.762;2023-03-04T06:27:42;98709.78;;;0.83;100.00
17505;BME280;8870;50.950;11.762;2023-03-04T06:33:05;98715.00;;;0.85;100.00
17505;BME280;8870;50.950;11.762;2023-03-04T06:38:36;98712.06;;;0.89;100.00
17505;BME280;8870;50.950;11.762;2023-03-04T06:43:54;98723.25;;;0.95;100.00
17505;BME280;8870;50.950;11.762;2023-03-04T06:49:28;98729.16;;;1.00;100.00
17505;BME280;8870;50.950;11.762;2023-03-04T06:54:47;98717.56;;;1.01;100.00
17505;BME280;8870;50.950;11.762;2023-03-04T07:00:18;98728.00;;;1.04;100.00
17505;BME280;8870;50.950;11.762;2023-03-04T07:05:47;98732.94;;;1.10;100.00
17505;BME280;8870;50.950;11.762;2023-03-04T07:11:19;98728.28;;;1.14;100.00
17505;BME280;8870;50.950;11.762;2023-03-04T07:16:39;98725.34;;;1.18;100.00
17505;BME280;8870;50.950;11.762;2023-03-04T07:22:12;98727.72;;;1.23;100.00
17505;BME280;8870;50.950;11.762;2023-03-04T07:27:31;98732.75;;;1.28;100.00
17505;BME280;8870;50.950;11.762;2023-03-04T07:33:03;98726.31;;;1.32;100.00
17505;BME280;8870;50.950;11.762;2023-03-04T07:38:24;98734.75;;;1.38;100.00
17505;BME280;8870;50.950;11.762;2023-03-04T07:43:56;98739.66;;;1.45;100.00
17505;BME280;8870;50.950;11.762;2023-03-04T07:49:14;98730.47;;;1.50;100.00
17505;BME280;8870;50.950;11.762;2023-03-04T07:54:48;98723.91;;;1.56;100.00
17505;BME280;8870;50.950;11.762;2023-03-04T08:00:09;98727.91;;;1.63;100.00
17505;BME280;8870;50.950;11.762;2023-03-04T08:05:40;98730.25;;;1.68;100.00
17505;BME280;8870;50.950;11.762;2023-03-04T08:11:15;98720.00;;;1.76;100.00
17505;BME280;8870;50.950;11.762;2023-03-04T08:16:34;98716.84;;;1.84;100.00
17505;BME280;8870;50.950;11.762;2023-03-04T08:22:05;98714.53;;;1.92;100.00
17505;BME280;8870;50.950;11.762;2023-03-04T08:27:26;98707.13;;;1.97;100.00
17505;BME280;8870;50.950;11.762;2023-03-04T08:32:58;98704.81;;;2.06;100.00
17505;BME280;8870;50.950;11.762;2023-03-04T08:38:16;98706.03;;;2.14;100.00
17505;BME280;8870;50.950;11.762;2023-03-04T08:43:50;98699.16;;;2.25;100.00
17505;BME280;8870;50.950;11.762;2023-03-04T08:49:10;98695.03;;;2.34;100.00
17505;BME280;8870;50.950;11.762;2023-03-04T08:54:41;98694.41;;;2.43;100.00
17505;BME280;8870;50.950;11.762;2023-03-04T09:00:02;98685.16;;;2.49;100.00
17505;BME280;8870;50.950;11.762;2023-03-04T09:05:34;98691.56;;;2.59;100.00
17505;BME280;8870;50.950;11.762;2023-03-04T09:10:54;98689.34;;;2.66;100.00
17505;BME280;8870;50.950;11.762;2023-03-04T09:16:28;98688.59;;;2.76;100.00
17505;BME280;8870;50.950;11.762;2023-03-04T09:21:46;98674.44;;;2.89;100.00
17505;BME280;8870;50.950;11.762;2023-03-04T09:27:18;98679.25;;;2.97;100.00
17505;BME280;8870;50.950;11.762;2023-03-04T09:32:39;98677.53;;;2.96;100.00
17505;BME280;8870;50.950;11.762;2023-03-04T09:38:10;98675.28;;;3.02;100.00
17505;BME280;8870;50.950;11.762;2023-03-04T09:43:29;98682.44;;;3.15;100.00
17505;BME280;8870;50.950;11.762;2023-03-04T09:49:03;98682.44;;;3.28;100.00
17505;BME280;8870;50.950;11.762;2023-03-04T09:54:38;98671.22;;;3.35;100.00
17505;BME280;8870;50.950;11.762;2023-03-04T10:00:20;98650.97;;;3.46;100.00
17505;BME280;8870;50.950;11.762;2023-03-04T10:05:54;98637.41;;;3.49;100.00
17505;BME280;8870;50.950;11.762;2023-03-04T10:11:27;98658.50;;;3.52;100.00
17505;BME280;8870;50.950;11.762;2023-03-04T10:16:50;98643.75;;;3.72;100.00
17505;BME280;8870;50.950;11.762;2023-03-04T10:22:30;98647.94;;;3.63;100.00
17505;BME280;8870;50.950;11.762;2023-03-04T10:27:51;98646.41;;;3.72;100.00
17505;BME280;8870;50.950;11.762;2023-03-04T10:33:25;98655.03;;;3.76;100.00
17505;BME280;8870;50.950;11.762;2023-03-04T10:38:47;98640.53;;;3.80;100.00
17505;BME280;8870;50.950;11.762;2023-03-04T10:44:19;98641.75;;;3.87;100.00
17505;BME280;8870;50.950;11.762;2023-03-04T10:49:49;98637.66;;;3.94;100.00
17505;BME280;8870;50.950;11.762;2023-03-04T10:55:27;98621.44;;;3.97;100.00
17505;BME280;8870;50.950;11.762;2023-03-04T11:00:57;98647.28;;;3.97;100.00
17505;BME280;8870;50.950;11.762;2023-03-04T11:06:29;98647.88;;;4.00;100.00
17505;BME280;8870;50.950;11.762;2023-03-04T11:11:51;98615.16;;;3.98;100.00
17505;BME280;8870;50.950;11.762;2023-03-04T11:17:24;98608.03;;;3.99;100.00
17505;BME280;8870;50.950;11.762;2023-03-04T11:22:44;98606.19;;;3.99;100.00
17505;BME280;8870;50.950;11.762;2023-03-04T11:28:22;98622.31;;;3.98;100.00
17505;BME280;8870;50.950;11.762;2023-03-04T11:33:46;98608.88;;;3.99;100.00
17505;BME280;8870;50.950;11.762;2023-03-04T11:39:28;98599.69;;;4.04;100.00
17505;BME280;8870;50.950;11.762;2023-03-04T11:44:50;98610.97;;;4.07;100.00
17505;BME280;8870;50.950;11.762;2023-03-04T11:50:45;98603.78;;;4.08;100.00
17505;BME280;8870;50.950;11.762;2023-03-04T11:56:26;98593.16;;;4.19;100.00
17505;BME280;8870;50.950;11.762;2023-03-04T12:02:17;98579.47;;;4.24;100.00
17505;BME280;8870;50.950;11.762;2023-03-04T12:14:01;98572.78;;;4.18;100.00
17505;BME280;8870;50.950;11.762;2023-03-04T12:19:42;98567.50;;;4.29;100.00
17505;BME280;8870;50.950;11.762;2023-03-04T12:25:37;98560.84;;;4.35;100.00
17505;BME280;8870;50.950;11.762;2023-03-04T12:31:20;98551.38;;;4.31;100.00
17505;BME280;8870;50.950;11.762;2023-03-04T12:36:59;98547.47;;;4.24;100.00
17505;BME280;8870;50.950;11.762;2023-03-04T12:42:29;98552.50;;;4.28;100.00
17505;BME280;8870;50.950;11.762;2023-03-04T12:48:14;98556.22;;;4.26;100.00
17505;BME280;8870;50.950;11.762;2023-03-04T12:53:47;98555.75;;;4.21;100.00
17505;BME280;8870;50.950;11.762;2023-03-04T12:59:23;98550.28;;;4.22;100.00
17505;BME280;8870;50.950;11.762;2023-03-04T13:04:51;98552.81;;;4.24;100.00
17505;BME280;8870;50.950;11.762;2023-03-04T13:10:30;98537.19;;;4.30;100.00
17505;BME280;8870;50.950;11.762;2023-03-04T13:16:00;98531.25;;;4.38;100.00
17505;BME280;8870;50.950;11.762;2023-03-04T13:21:43;98522.81;;;4.44;100.00
17505;BME280;8870;50.950;11.762;2023-03-04T13:39:33;98519.88;;;4.59;100.00
17505;BME280;8870;50.950;11.762;2023-03-04T13:45:27;98505.94;;;4.55;100.00
17505;BME280;8870;50.950;11.762;2023-03-04T13:50:48;98506.66;;;4.57;100.00
17505;BME280;8870;50.950;11.762;2023-03-04T13:56:30;98508.13;;;4.50;100.00
17505;BME280;8870;50.950;11.762;2023-03-04T14:01:57;98496.50;;;4.51;100.00
17505;BME280;8870;50.950;11.762;2023-03-04T14:07:31;98500.59;;;4.44;100.00
17505;BME280;8870;50.950;11.762;2023-03-04T14:12:55;98507.03;;;4.41;100.00
17505;BME280;8870;50.950;11.762;2023-03-04T14:18:27;98491.84;;;4.42;100.00
17505;BME280;8870;50.950;11.762;2023-03-04T14:23:45;98483.75;;;4.43;100.00
17505;BME280;8870;50.950;11.762;2023-03-04T14:29:24;98494.06;;;4.37;100.00
17505;BME280;8870;50.950;11.762;2023-03-04T14:34:48;98503.00;;;4.13;100.00
17505;BME280;8870;50.950;11.762;2023-03-04T14:40:23;98496.44;;;4.06;100.00
17505;BME280;8870;50.950;11.762;2023-03-04T14:45:48;98498.59;;;4.00;100.00
17505;BME280;8870;50.950;11.762;2023-03-04T14:51:32;98479.81;;;4.02;100.00
17505;BME280;8870;50.950;11.762;2023-03-04T14:56:56;98473.28;;;4.06;100.00
17505;BME280;8870;50.950;11.762;2023-03-04T15:02:36;98474.63;;;4.12;100.00
17505;BME280;8870;50.950;11.762;2023-03-04T15:08:05;98481.44;;;4.16;100.00
17505;BME280;8870;50.950;11.762;2023-03-04T15:13:48;98463.25;;;4.21;100.00
17505;BME280;8870;50.950;11.762;2023-03-04T15:19:23;98467.47;;;4.24;100.00
17505;BME280;8870;50.950;11.762;2023-03-04T15:24:55;98495.47;;;4.18;100.00
17505;BME280;8870;50.950;11.762;2023-03-04T15:30:15;98486.78;;;3.80;100.00
17505;BME280;8870;50.950;11.762;2023-03-04T15:35:56;98498.75;;;3.75;100.00
17505;BME280;8870;50.950;11.762;2023-03-04T15:41:18;98490.28;;;3.69;100.00
17505;BME280;8870;50.950;11.762;2023-03-04T15:46:50;98496.94;;;3.64;100.00
17505;BME280;8870;50.950;11.762;2023-03-04T15:52:15;98507.69;;;3.62;100.00
17505;BME280;8870;50.950;11.762;2023-03-04T15:57:51;98499.59;;;3.64;100.00
17505;BME280;8870;50.950;11.762;2023-03-04T16:03:14;98500.31;;;3.66;100.00
17505;BME280;8870;50.950;11.762;2023-03-04T16:08:48;98497.88;;;3.63;100.00
17505;BME280;8870;50.950;11.762;2023-03-04T16:14:24;98496.53;;;3.57;100.00
17505;BME280;8870;50.950;11.762;2023-03-04T16:19:42;98489.25;;;3.59;100.00
17505;BME280;8870;50.950;11.762;2023-03-04T16:25:17;98490.69;;;3.52;100.00
17505;BME280;8870;50.950;11.762;2023-03-04T16:30:35;98480.91;;;3.52;100.00
17505;BME280;8870;50.950;11.762;2023-03-04T16:36:12;98477.50;;;3.50;100.00
17505;BME280;8870;50.950;11.762;2023-03-04T16:41:34;98493.56;;;3.49;100.00
17505;BME280;8870;50.950;11.762;2023-03-04T16:47:05;98481.97;;;3.50;100.00
17505;BME280;8870;50.950;11.762;2023-03-04T16:52:25;98484.88;;;3.47;100.00
17505;BME280;8870;50.950;11.762;2023-03-04T16:58:00;98482.38;;;3.32;100.00
17505;BME280;8870;50.950;11.762;2023-03-04T17:03:18;98486.44;;;3.25;100.00
17505;BME280;8870;50.950;11.762;2023-03-04T17:08:49;98482.22;;;3.22;100.00
17505;BME280;8870;50.950;11.762;2023-03-04T17:14:23;98488.69;;;3.18;100.00
17505;BME280;8870;50.950;11.762;2023-03-04T17:19:54;98488.00;;;3.16;100.00
17505;BME280;8870;50.950;11.762;2023-03-04T17:25:16;98493.19;;;3.18;100.00
17505;BME280;8870;50.950;11.762;2023-03-04T17:30:51;98506.84;;;3.13;100.00
17505;BME280;8870;50.950;11.762;2023-03-04T17:36:11;98515.91;;;3.11;100.00
17505;BME280;8870;50.950;11.762;2023-03-04T17:41:43;98515.25;;;3.07;100.00
17505;BME280;8870;50.950;11.762;2023-03-04T17:47:04;98518.03;;;3.05;100.00
17505;BME280;8870;50.950;11.762;2023-03-04T17:52:36;98513.69;;;3.04;100.00
17505;BME280;8870;50.950;11.762;2023-03-04T17:57:54;98504.75;;;3.05;100.00
17505;BME280;8870;50.950;11.762;2023-03-04T18:03:28;98507.06;;;3.10;100.00
17505;BME280;8870;50.950;11.762;2023-03-04T18:08:53;98504.41;;;3.10;100.00
17505;BME280;8870;50.950;11.762;2023-03-04T18:14:25;98507.28;;;3.07;100.00
17505;BME280;8870;50.950;11.762;2023-03-04T18:19:46;98503.56;;;3.10;100.00
17505;BME280;8870;50.950;11.762;2023-03-04T18:25:17;98497.38;;;3.09;100.00
17505;BME280;8870;50.950;11.762;2023-03-04T18:30:36;98498.47;;;3.06;100.00
17505;BME280;8870;50.950;11.762;2023-03-04T18:36:11;98492.38;;;3.04;100.00
17505;BME280;8870;50.950;11.762;2023-03-04T18:41:29;98496.97;;;3.02;100.00
17505;BME280;8870;50.950;11.762;2023-03-04T18:47:01;98497.22;;;2.99;100.00
17505;BME280;8870;50.950;11.762;2023-03-04T18:52:24;98502.84;;;2.95;100.00
17505;BME280;8870;50.950;11.762;2023-03-04T18:57:57;98512.78;;;2.92;100.00
17505;BME280;8870;50.950;11.762;2023-03-04T19:03:16;98517.22;;;2.92;100.00
17505;BME280;8870;50.950;11.762;2023-03-04T19:08:50;98519.38;;;2.87;100.00
17505;BME280;8870;50.950;11.762;2023-03-04T19:14:09;98519.47;;;2.85;100.00
17505;BME280;8870;50.950;11.762;2023-03-04T19:19:40;98509.91;;;2.83;100.00
17505;BME280;8870;50.950;11.762;2023-03-04T19:25:01;98511.81;;;2.81;100.00
17505;BME280;8870;50.950;11.762;2023-03-04T19:30:32;98511.09;;;2.78;100.00
17505;BME280;8870;50.950;11.762;2023-03-04T19:35:52;98512.16;;;2.76;100.00
17505;BME280;8870;50.950;11.762;2023-03-04T19:41:27;98514.06;;;2.74;100.00
17505;BME280;8870;50.950;11.762;2023-03-04T19:46:45;98509.84;;;2.71;100.00
17505;BME280;8870;50.950;11.762;2023-03-04T19:52:17;98495.78;;;2.69;100.00
17505;BME280;8870;50.950;11.762;2023-03-04T19:57:40;98487.69;;;2.71;100.00
17505;BME280;8870;50.950;11.762;2023-03-04T20:03:12;98491.72;;;2.76;100.00
17505;BME280;8870;50.950;11.762;2023-03-04T20:08:30;98486.97;;;2.69;100.00
17505;BME280;8870;50.950;11.762;2023-03-04T20:14:04;98490.16;;;2.61;100.00
17505;BME280;8870;50.950;11.762;2023-03-04T20:19:22;98494.75;;;2.59;100.00
17505;BME280;8870;50.950;11.762;2023-03-04T20:24:53;98495.28;;;2.51;100.00
17505;BME280;8870;50.950;11.762;2023-03-04T20:30:28;98500.72;;;2.50;100.00
17505;BME280;8870;50.950;11.762;2023-03-04T20:35:46;98499.84;;;2.49;100.00
17505;BME280;8870;50.950;11.762;2023-03-04T20:41:17;98502.84;;;2.44;100.00
17505;BME280;8870;50.950;11.762;2023-03-04T20:46:40;98507.41;;;2.42;100.00
17505;BME280;8870;50.950;11.762;2023-03-04T20:52:11;98499.56;;;2.41;100.00
17505;BME280;8870;50.950;11.762;2023-03-04T20:57:29;98508.59;;;2.38;100.00
17505;BME280;8870;50.950;11.762;2023-03-04T21:03:06;98514.13;;;2.35;100.00
17505;BME280;8870;50.950;11.762;2023-03-04T21:08:31;98517.09;;;2.30;100.00
17505;BME280;8870;50.950;11.762;2023-03-04T21:14:02;98514.78;;;2.26;100.00
17505;BME280;8870;50.950;11.762;2023-03-04T21:19:24;98512.53;;;2.20;100.00
17505;BME280;8870;50.950;11.762;2023-03-04T21:24:57;98507.53;;;2.15;100.00
17505;BME280;8870;50.950;11.762;2023-03-04T21:30:16;98503.47;;;2.09;100.00
17505;BME280;8870;50.950;11.762;2023-03-04T21:35:50;98504.56;;;2.07;100.00
17505;BME280;8870;50.950;11.762;2023-03-04T21:41:10;98505.63;;;2.04;100.00
17505;BME280;8870;50.950;11.762;2023-03-04T21:46:42;98509.75;;;2.08;100.00
17505;BME280;8870;50.950;11.762;2023-03-04T21:52:03;98504.88;;;2.15;100.00
17505;BME280;8870;50.950;11.762;2023-03-04T21:57:34;98506.88;;;2.11;100.00
17505;BME280;8870;50.950;11.762;2023-03-04T22:02:52;98499.03;;;2.10;100.00
17505;BME280;8870;50.950;11.762;2023-03-04T22:08:26;98491.69;;;2.13;100.00
17505;BME280;8870;50.950;11.762;2023-03-04T22:13:59;98488.81;;;2.04;100.00
17505;BME280;8870;50.950;11.762;2023-03-04T22:19:17;98485.84;;;2.08;100.00
17505;BME280;8870;50.950;11.762;2023-03-04T22:24:56;98475.44;;;2.05;100.00
17505;BME280;8870;50.950;11.762;2023-03-04T22:30:15;98466.91;;;2.00;100.00
17505;BME280;8870;50.950;11.762;2023-03-04T22:35:47;98472.66;;;1.94;100.00
17505;BME280;8870;50.950;11.762;2023-03-04T22:41:14;98453.09;;;1.95;100.00
17505;BME280;8870;50.950;11.762;2023-03-04T22:46:45;98450.34;;;1.96;100.00
17505;BME280;8870;50.950;11.762;2023-03-04T22:52:03;98444.16;;;1.96;100.00
17505;BME280;8870;50.950;11.762;2023-03-04T22:57:40;98446.75;;;1.97;100.00
17505;BME280;8870;50.950;11.762;2023-03-04T23:03:00;98447.06;;;1.93;100.00
17505;BME280;8870;50.950;11.762;2023-03-04T23:08:34;98448.84;;;1.79;100.00
17505;BME280;8870;50.950;11.762;2023-03-04T23:14:08;98446.41;;;1.76;100.00
17505;BME280;8870;50.950;11.762;2023-03-04T23:19:30;98461.25;;;1.79;100.00
17505;BME280;8870;50.950;11.762;2023-03-04T23:25:01;98453.63;;;1.74;100.00
17505;BME280;8870;50.950;11.762;2023-03-04T23:30:24;98438.63;;;1.73;100.00
17505;BME280;8870;50.950;11.762;2023-03-04T23:35:56;98426.31;;;1.72;100.00
17505;BME280;8870;50.950;11.762;2023-03-04T23:41:16;98429.31;;;1.80;100.00
17505;BME280;8870;50.950;11.762;2023-03-04T23:46:50;98438.63;;;1.73;100.00
17505;BME280;8870;50.950;11.762;2023-03-04T23:52:09;98439.81;;;1.69;100.00
17505;BME280;8870;50.950;11.762;2023-03-04T23:57:41;98433.94;;;1.64;100.00
